Spokane, WA (99216)

5:48 AM PST on December 29, 2014 (GMT -0800)
Broadway Ave | Change Station
CLOSE
Current Station
Personal Weather Station
Location: Veradale, WA
Elevation: 2057 ft
Nearby Weather Stations

Elev 2057 ft 47.66 °N, 117.19 °W | Updated 4 seconds ago

Overcast
Overcast
21.9 °F
Feels Like 9 °F
N
13.2
Wind Variable Wind from NNE
Gusts 15.4 mph

Today
High -- | Low -- °F
--% Chance of Precip.
Yesterday
High -- | Low -- °F
Precip. -- in
7:37 AM 4:05 PM
First Quarter, 59% visible
Pressure 30.37 in
Visibility 10.0 miles
Clouds Overcast 7000 ft
Windchill 9 °F
Dew Point -1 °F
Humidity 36%
Rainfall 0.00 in
Snow Depth Not available.
UV 0 out of 12
Pollen .10 out of 12
Air Quality Not available.
Flu Activity Not available.
METAR KSFF 291253Z AUTO 05011G20KT 10SM OVC070 M04/M11 A3031 RMK AO2 PK WND 07030/1208 SLP284 T10391106

More Conditions Fewer Conditions

Pressure 30.37 in
Visibility 10.0 miles
Clouds Overcast 7000 ft
Windchill 9 °F
Dew Point -1 °F
Humidity 36%
Rainfall 0.00 in
Snow Depth Not available.
UV 0 out of 12
Pollen .10 out of 12
Air Quality Not available.
Flu Activity Not available.
METAR KSFF 291253Z AUTO 05011G20KT 10SM OVC070 M04/M11 A3031 RMK AO2 PK WND 07030/1208 SLP284 T10391106

More Conditions Fewer Conditions

10-Day Weather Forecast

Almanac

Astronomy

Dec. 29, 2014 Rise Set
Actual Time
Civil Twilight
Nautical Twilight
Astronomical Twilight
Moon
Length of Visible Light
Length of Day
Tomorrow will be .
, % of the Moon is Illuminated

Today's Extremes

State Highs State Lows

Community

WunderPhotos

Upload Photos

1,781,586 photos uploaded!

WunderBlogs® & News

Nearby

Air Quality

  Air Quality AQ Index Pollutant
Not available.

Snow Depth

Station Depth Elevation

Earthquake Activity

City Distance Mag. Time & Date
Minimum magnitude displayed is 2.5.

Coastal Water Temperatures

Place Temperature

Nearby Weather Stations